sensor_id;sensor_type;location;lat;lon;timestamp;P1;durP1;ratioP1;P2;durP2;ratioP2
23290;SDS011;11814;44.686;10.842;2023-06-22T00:01:56;18.73;;;12.05;;
23290;SDS011;11814;44.686;10.842;2023-06-22T00:04:21;20.17;;;11.85;;
23290;SDS011;11814;44.686;10.842;2023-06-22T00:06:47;15.52;;;11.82;;
23290;SDS011;11814;44.686;10.842;2023-06-22T00:09:13;17.58;;;12.48;;
23290;SDS011;11814;44.686;10.842;2023-06-22T00:11:39;17.60;;;12.25;;
23290;SDS011;11814;44.686;10.842;2023-06-22T00:14:05;17.30;;;11.52;;
23290;SDS011;11814;44.686;10.842;2023-06-22T00:16:33;16.83;;;10.98;;
23290;SDS011;11814;44.686;10.842;2023-06-22T00:19:00;20.50;;;12.02;;
23290;SDS011;11814;44.686;10.842;2023-06-22T00:21:27;16.20;;;11.40;;
23290;SDS011;11814;44.686;10.842;2023-06-22T00:23:53;18.45;;;12.52;;
23290;SDS011;11814;44.686;10.842;2023-06-22T00:26:19;19.63;;;13.77;;
23290;SDS011;11814;44.686;10.842;2023-06-22T00:28:46;21.10;;;13.63;;
23290;SDS011;11814;44.686;10.842;2023-06-22T00:31:12;18.15;;;13.10;;
23290;SDS011;11814;44.686;10.842;2023-06-22T00:33:38;17.98;;;12.10;;
23290;SDS011;11814;44.686;10.842;2023-06-22T00:36:04;17.85;;;13.02;;
23290;SDS011;11814;44.686;10.842;2023-06-22T00:38:31;16.27;;;13.52;;
23290;SDS011;11814;44.686;10.842;2023-06-22T00:40:57;17.88;;;12.60;;
23290;SDS011;11814;44.686;10.842;2023-06-22T00:43:22;15.50;;;12.93;;
23290;SDS011;11814;44.686;10.842;2023-06-22T00:45:48;19.15;;;13.13;;
23290;SDS011;11814;44.686;10.842;2023-06-22T00:48:14;22.65;;;14.07;;
23290;SDS011;11814;44.686;10.842;2023-06-22T00:50:40;22.52;;;14.18;;
23290;SDS011;11814;44.686;10.842;2023-06-22T00:53:06;23.33;;;16.08;;
23290;SDS011;11814;44.686;10.842;2023-06-22T00:55:37;22.23;;;15.90;;
23290;SDS011;11814;44.686;10.842;2023-06-22T00:58:08;29.45;;;19.58;;
23290;SDS011;11814;44.686;10.842;2023-06-22T01:00:36;29.83;;;20.88;;
23290;SDS011;11814;44.686;10.842;2023-06-22T01:03:03;26.73;;;20.75;;
23290;SDS011;11814;44.686;10.842;2023-06-22T01:05:29;23.20;;;19.45;;
23290;SDS011;11814;44.686;10.842;2023-06-22T01:09:00;23.00;;;18.77;;
23290;SDS011;11814;44.686;10.842;2023-06-22T01:16:20;25.38;;;17.48;;
23290;SDS011;11814;44.686;10.842;2023-06-22T01:18:51;19.98;;;17.73;;
23290;SDS011;11814;44.686;10.842;2023-06-22T01:21:20;19.35;;;15.93;;
23290;SDS011;11814;44.686;10.842;2023-06-22T01:23:54;26.33;;;18.92;;
23290;SDS011;11814;44.686;10.842;2023-06-22T01:26:39;23.60;;;18.88;;
23290;SDS011;11814;44.686;10.842;2023-06-22T01:29:06;26.83;;;18.88;;
23290;SDS011;11814;44.686;10.842;2023-06-22T01:31:37;26.50;;;19.35;;
23290;SDS011;11814;44.686;10.842;2023-06-22T01:34:05;20.40;;;18.15;;
23290;SDS011;11814;44.686;10.842;2023-06-22T01:36:33;26.25;;;20.55;;
23290;SDS011;11814;44.686;10.842;2023-06-22T01:38:59;23.90;;;19.85;;
23290;SDS011;11814;44.686;10.842;2023-06-22T01:41:27;22.63;;;19.67;;
23290;SDS011;11814;44.686;10.842;2023-06-22T01:43:55;25.65;;;19.20;;
23290;SDS011;11814;44.686;10.842;2023-06-22T01:46:21;24.13;;;19.05;;
23290;SDS011;11814;44.686;10.842;2023-06-22T01:48:48;23.02;;;19.08;;
23290;SDS011;11814;44.686;10.842;2023-06-22T01:51:14;23.90;;;18.63;;
23290;SDS011;11814;44.686;10.842;2023-06-22T01:53:40;23.98;;;18.95;;
23290;SDS011;11814;44.686;10.842;2023-06-22T01:56:07;23.23;;;17.95;;
23290;SDS011;11814;44.686;10.842;2023-06-22T01:58:33;22.80;;;18.35;;
23290;SDS011;11814;44.686;10.842;2023-06-22T02:01:10;25.52;;;19.35;;
23290;SDS011;11814;44.686;10.842;2023-06-22T02:03:38;20.52;;;18.38;;
23290;SDS011;11814;44.686;10.842;2023-06-22T02:06:09;26.50;;;20.35;;
23290;SDS011;11814;44.686;10.842;2023-06-22T02:08:41;26.13;;;22.17;;
23290;SDS011;11814;44.686;10.842;2023-06-22T02:11:12;29.75;;;24.00;;
23290;SDS011;11814;44.686;10.842;2023-06-22T02:13:39;24.35;;;20.83;;
23290;SDS011;11814;44.686;10.842;2023-06-22T02:16:08;30.73;;;23.90;;
23290;SDS011;11814;44.686;10.842;2023-06-22T02:18:38;29.45;;;22.40;;
23290;SDS011;11814;44.686;10.842;2023-06-22T02:21:05;26.38;;;23.55;;
23290;SDS011;11814;44.686;10.842;2023-06-22T02:23:31;25.23;;;21.67;;
23290;SDS011;11814;44.686;10.842;2023-06-22T02:26:00;26.05;;;23.15;;
23290;SDS011;11814;44.686;10.842;2023-06-22T02:28:27;26.98;;;23.27;;
23290;SDS011;11814;44.686;10.842;2023-06-22T02:30:53;28.75;;;22.85;;
23290;SDS011;11814;44.686;10.842;2023-06-22T02:33:19;27.45;;;21.80;;
23290;SDS011;11814;44.686;10.842;2023-06-22T02:35:44;25.17;;;22.05;;
23290;SDS011;11814;44.686;10.842;2023-06-22T02:38:13;24.65;;;20.10;;
23290;SDS011;11814;44.686;10.842;2023-06-22T02:40:39;29.92;;;22.73;;
23290;SDS011;11814;44.686;10.842;2023-06-22T02:43:05;28.02;;;22.60;;
23290;SDS011;11814;44.686;10.842;2023-06-22T02:45:30;24.98;;;21.80;;
23290;SDS011;11814;44.686;10.842;2023-06-22T02:47:56;26.70;;;22.60;;
23290;SDS011;11814;44.686;10.842;2023-06-22T02:50:22;27.90;;;22.15;;
23290;SDS011;11814;44.686;10.842;2023-06-22T02:52:48;25.98;;;21.38;;
23290;SDS011;11814;44.686;10.842;2023-06-22T02:55:14;28.17;;;21.63;;
23290;SDS011;11814;44.686;10.842;2023-06-22T02:57:40;26.27;;;22.17;;
23290;SDS011;11814;44.686;10.842;2023-06-22T03:00:09;28.67;;;21.88;;
23290;SDS011;11814;44.686;10.842;2023-06-22T03:02:43;27.75;;;20.98;;
23290;SDS011;11814;44.686;10.842;2023-06-22T03:05:10;26.80;;;22.42;;
23290;SDS011;11814;44.686;10.842;2023-06-22T03:07:38;23.35;;;20.63;;
23290;SDS011;11814;44.686;10.842;2023-06-22T03:10:08;26.73;;;21.02;;
23290;SDS011;11814;44.686;10.842;2023-06-22T03:12:37;26.40;;;21.05;;
23290;SDS011;11814;44.686;10.842;2023-06-22T03:15:06;23.02;;;20.52;;
23290;SDS011;11814;44.686;10.842;2023-06-22T03:17:34;31.80;;;20.48;;
23290;SDS011;11814;44.686;10.842;2023-06-22T03:20:00;22.60;;;20.17;;
23290;SDS011;11814;44.686;10.842;2023-06-22T03:22:34;23.92;;;20.33;;
23290;SDS011;11814;44.686;10.842;2023-06-22T03:25:01;27.85;;;20.52;;
23290;SDS011;11814;44.686;10.842;2023-06-22T03:27:26;22.20;;;19.77;;
23290;SDS011;11814;44.686;10.842;2023-06-22T03:29:52;26.45;;;20.15;;
23290;SDS011;11814;44.686;10.842;2023-06-22T03:32:18;27.75;;;20.70;;
23290;SDS011;11814;44.686;10.842;2023-06-22T03:34:44;28.10;;;20.20;;
23290;SDS011;11814;44.686;10.842;2023-06-22T03:37:15;25.35;;;18.95;;
23290;SDS011;11814;44.686;10.842;2023-06-22T03:39:41;27.08;;;19.55;;
23290;SDS011;11814;44.686;10.842;2023-06-22T03:42:07;28.50;;;20.13;;
23290;SDS011;11814;44.686;10.842;2023-06-22T03:44:33;27.73;;;19.90;;
23290;SDS011;11814;44.686;10.842;2023-06-22T03:47:01;27.58;;;19.52;;
23290;SDS011;11814;44.686;10.842;2023-06-22T03:49:28;23.70;;;19.02;;
23290;SDS011;11814;44.686;10.842;2023-06-22T03:51:53;25.98;;;20.52;;
23290;SDS011;11814;44.686;10.842;2023-06-22T03:54:19;23.58;;;19.38;;
23290;SDS011;11814;44.686;10.842;2023-06-22T03:56:44;25.30;;;19.02;;
23290;SDS011;11814;44.686;10.842;2023-06-22T03:59:10;25.83;;;20.25;;
23290;SDS011;11814;44.686;10.842;2023-06-22T04:01:36;27.73;;;20.52;;
23290;SDS011;11814;44.686;10.842;2023-06-22T04:04:01;25.58;;;20.10;;
23290;SDS011;11814;44.686;10.842;2023-06-22T04:06:27;27.35;;;19.67;;
23290;SDS011;11814;44.686;10.842;2023-06-22T04:08:53;25.38;;;19.92;;
23290;SDS011;11814;44.686;10.842;2023-06-22T04:11:18;24.27;;;19.88;;
23290;SDS011;11814;44.686;10.842;2023-06-22T04:13:44;23.40;;;18.65;;
23290;SDS011;11814;44.686;10.842;2023-06-22T04:16:10;21.33;;;18.95;;
23290;SDS011;11814;44.686;10.842;2023-06-22T04:18:36;23.42;;;19.05;;
23290;SDS011;11814;44.686;10.842;2023-06-22T04:21:02;26.60;;;19.70;;
23290;SDS011;11814;44.686;10.842;2023-06-22T04:23:28;26.67;;;19.92;;
23290;SDS011;11814;44.686;10.842;2023-06-22T04:25:53;26.95;;;19.83;;
23290;SDS011;11814;44.686;10.842;2023-06-22T04:28:21;23.70;;;19.92;;
23290;SDS011;11814;44.686;10.842;2023-06-22T04:30:47;25.88;;;19.52;;
23290;SDS011;11814;44.686;10.842;2023-06-22T04:33:16;24.52;;;17.80;;
23290;SDS011;11814;44.686;10.842;2023-06-22T04:35:44;25.52;;;18.35;;
23290;SDS011;11814;44.686;10.842;2023-06-22T04:38:11;24.30;;;17.77;;
23290;SDS011;11814;44.686;10.842;2023-06-22T04:40:38;25.80;;;18.67;;
23290;SDS011;11814;44.686;10.842;2023-06-22T04:43:04;25.65;;;15.77;;
23290;SDS011;11814;44.686;10.842;2023-06-22T04:45:31;24.02;;;17.15;;
23290;SDS011;11814;44.686;10.842;2023-06-22T04:47:58;19.88;;;17.20;;
23290;SDS011;11814;44.686;10.842;2023-06-22T04:50:24;21.67;;;16.08;;
23290;SDS011;11814;44.686;10.842;2023-06-22T04:52:50;23.60;;;16.20;;
23290;SDS011;11814;44.686;10.842;2023-06-22T04:55:16;26.52;;;17.33;;
23290;SDS011;11814;44.686;10.842;2023-06-22T04:57:46;27.38;;;16.30;;
23290;SDS011;11814;44.686;10.842;2023-06-22T05:00:18;20.27;;;15.15;;
23290;SDS011;11814;44.686;10.842;2023-06-22T05:02:48;19.00;;;16.08;;
23290;SDS011;11814;44.686;10.842;2023-06-22T05:05:14;20.65;;;15.20;;
23290;SDS011;11814;44.686;10.842;2023-06-22T05:07:46;18.77;;;15.48;;
23290;SDS011;11814;44.686;10.842;2023-06-22T05:10:16;16.75;;;14.85;;
23290;SDS011;11814;44.686;10.842;2023-06-22T05:12:41;20.88;;;14.90;;
23290;SDS011;11814;44.686;10.842;2023-06-22T05:15:08;20.92;;;14.55;;
23290;SDS011;11814;44.686;10.842;2023-06-22T05:17:34;17.80;;;13.93;;
23290;SDS011;11814;44.686;10.842;2023-06-22T05:20:01;18.02;;;14.15;;
23290;SDS011;11814;44.686;10.842;2023-06-22T05:22:27;22.23;;;14.32;;
23290;SDS011;11814;44.686;10.842;2023-06-22T05:24:53;20.42;;;13.13;;
23290;SDS011;11814;44.686;10.842;2023-06-22T05:27:19;22.77;;;13.50;;
23290;SDS011;11814;44.686;10.842;2023-06-22T05:29:44;17.23;;;13.20;;
23290;SDS011;11814;44.686;10.842;2023-06-22T05:32:10;20.65;;;13.70;;
23290;SDS011;11814;44.686;10.842;2023-06-22T05:34:36;17.75;;;12.38;;
23290;SDS011;11814;44.686;10.842;2023-06-22T05:37:02;15.57;;;12.70;;
23290;SDS011;11814;44.686;10.842;2023-06-22T05:39:28;17.75;;;12.30;;
23290;SDS011;11814;44.686;10.842;2023-06-22T05:41:53;17.98;;;11.85;;
23290;SDS011;11814;44.686;10.842;2023-06-22T05:44:19;19.88;;;12.13;;
23290;SDS011;11814;44.686;10.842;2023-06-22T05:46:45;20.23;;;11.95;;
23290;SDS011;11814;44.686;10.842;2023-06-22T05:49:13;21.08;;;12.07;;
23290;SDS011;11814;44.686;10.842;2023-06-22T05:51:39;19.08;;;11.52;;
23290;SDS011;11814;44.686;10.842;2023-06-22T05:54:05;19.38;;;11.90;;
23290;SDS011;11814;44.686;10.842;2023-06-22T05:56:31;19.75;;;12.13;;
23290;SDS011;11814;44.686;10.842;2023-06-22T05:58:57;15.65;;;11.23;;
23290;SDS011;11814;44.686;10.842;2023-06-22T06:01:23;17.73;;;11.73;;
23290;SDS011;11814;44.686;10.842;2023-06-22T06:03:50;16.73;;;12.07;;
23290;SDS011;11814;44.686;10.842;2023-06-22T06:06:17;17.48;;;11.43;;
23290;SDS011;11814;44.686;10.842;2023-06-22T06:08:45;16.58;;;11.88;;
23290;SDS011;11814;44.686;10.842;2023-06-22T06:11:10;20.58;;;11.20;;
23290;SDS011;11814;44.686;10.842;2023-06-22T06:13:36;17.30;;;11.13;;
23290;SDS011;11814;44.686;10.842;2023-06-22T06:16:02;16.05;;;11.05;;
23290;SDS011;11814;44.686;10.842;2023-06-22T06:18:27;17.38;;;10.60;;
23290;SDS011;11814;44.686;10.842;2023-06-22T06:20:53;21.23;;;11.02;;
23290;SDS011;11814;44.686;10.842;2023-06-22T06:23:19;16.63;;;9.98;;
23290;SDS011;11814;44.686;10.842;2023-06-22T06:25:45;17.17;;;11.02;;
23290;SDS011;11814;44.686;10.842;2023-06-22T06:28:10;18.35;;;9.88;;
23290;SDS011;11814;44.686;10.842;2023-06-22T06:30:36;18.08;;;10.45;;
23290;SDS011;11814;44.686;10.842;2023-06-22T06:33:02;15.65;;;10.25;;
23290;SDS011;11814;44.686;10.842;2023-06-22T06:35:29;17.50;;;9.77;;
23290;SDS011;11814;44.686;10.842;2023-06-22T06:37:55;13.02;;;8.63;;
23290;SDS011;11814;44.686;10.842;2023-06-22T06:40:21;16.70;;;9.50;;
23290;SDS011;11814;44.686;10.842;2023-06-22T06:42:47;18.00;;;8.65;;
23290;SDS011;11814;44.686;10.842;2023-06-22T06:45:18;20.30;;;9.05;;
23290;SDS011;11814;44.686;10.842;2023-06-22T06:47:47;16.15;;;7.65;;
23290;SDS011;11814;44.686;10.842;2023-06-22T06:50:13;12.25;;;7.20;;
23290;SDS011;11814;44.686;10.842;2023-06-22T06:52:39;12.75;;;7.30;;
23290;SDS011;11814;44.686;10.842;2023-06-22T06:55:05;14.07;;;7.40;;
23290;SDS011;11814;44.686;10.842;2023-06-22T06:57:33;17.27;;;7.90;;
23290;SDS011;11814;44.686;10.842;2023-06-22T06:59:59;12.32;;;7.18;;
23290;SDS011;11814;44.686;10.842;2023-06-22T07:02:25;12.45;;;7.18;;
23290;SDS011;11814;44.686;10.842;2023-06-22T07:04:53;16.83;;;8.07;;
23290;SDS011;11814;44.686;10.842;2023-06-22T07:07:20;12.95;;;7.30;;
23290;SDS011;11814;44.686;10.842;2023-06-22T07:09:46;14.60;;;7.30;;
23290;SDS011;11814;44.686;10.842;2023-06-22T07:12:12;19.45;;;9.02;;
23290;SDS011;11814;44.686;10.842;2023-06-22T07:14:37;13.88;;;7.90;;
23290;SDS011;11814;44.686;10.842;2023-06-22T07:17:04;17.27;;;8.02;;
23290;SDS011;11814;44.686;10.842;2023-06-22T07:19:29;13.50;;;8.13;;
23290;SDS011;11814;44.686;10.842;2023-06-22T07:21:56;15.82;;;10.00;;
23290;SDS011;11814;44.686;10.842;2023-06-22T07:24:22;12.48;;;7.28;;
23290;SDS011;11814;44.686;10.842;2023-06-22T07:26:49;16.42;;;8.35;;
23290;SDS011;11814;44.686;10.842;2023-06-22T07:29:18;15.63;;;8.00;;
23290;SDS011;11814;44.686;10.842;2023-06-22T07:31:48;14.05;;;8.10;;
23290;SDS011;11814;44.686;10.842;2023-06-22T07:34:16;20.80;;;9.02;;
23290;SDS011;11814;44.686;10.842;2023-06-22T07:36:42;16.33;;;8.23;;
23290;SDS011;11814;44.686;10.842;2023-06-22T07:39:09;13.57;;;8.82;;
23290;SDS011;11814;44.686;10.842;2023-06-22T07:41:34;15.75;;;8.70;;
23290;SDS011;11814;44.686;10.842;2023-06-22T07:44:01;14.90;;;8.45;;
23290;SDS011;11814;44.686;10.842;2023-06-22T07:46:28;12.93;;;8.63;;
23290;SDS011;11814;44.686;10.842;2023-06-22T07:48:55;16.63;;;8.45;;
23290;SDS011;11814;44.686;10.842;2023-06-22T07:51:21;21.92;;;8.85;;
23290;SDS011;11814;44.686;10.842;2023-06-22T07:53:47;16.63;;;10.93;;
23290;SDS011;11814;44.686;10.842;2023-06-22T07:56:13;20.08;;;10.10;;
23290;SDS011;11814;44.686;10.842;2023-06-22T07:58:43;19.35;;;10.50;;
23290;SDS011;11814;44.686;10.842;2023-06-22T08:01:10;16.45;;;10.85;;
23290;SDS011;11814;44.686;10.842;2023-06-22T08:03:36;16.60;;;10.68;;
23290;SDS011;11814;44.686;10.842;2023-06-22T08:06:02;14.65;;;9.48;;
23290;SDS011;11814;44.686;10.842;2023-06-22T08:08:28;18.05;;;10.48;;
23290;SDS011;11814;44.686;10.842;2023-06-22T08:10:53;13.07;;;9.63;;
23290;SDS011;11814;44.686;10.842;2023-06-22T08:13:19;20.20;;;9.00;;
23290;SDS011;11814;44.686;10.842;2023-06-22T08:15:45;15.20;;;8.43;;
23290;SDS011;11814;44.686;10.842;2023-06-22T08:18:11;16.38;;;8.57;;
23290;SDS011;11814;44.686;10.842;2023-06-22T08:20:36;18.90;;;9.00;;
23290;SDS011;11814;44.686;10.842;2023-06-22T08:23:02;13.25;;;8.00;;
23290;SDS011;11814;44.686;10.842;2023-06-22T08:25:34;13.93;;;7.70;;
23290;SDS011;11814;44.686;10.842;2023-06-22T08:28:00;16.55;;;9.05;;
23290;SDS011;11814;44.686;10.842;2023-06-22T08:30:27;13.95;;;8.50;;
23290;SDS011;11814;44.686;10.842;2023-06-22T08:32:53;14.73;;;9.07;;
23290;SDS011;11814;44.686;10.842;2023-06-22T08:35:20;17.63;;;8.48;;
23290;SDS011;11814;44.686;10.842;2023-06-22T08:37:47;17.35;;;9.38;;
23290;SDS011;11814;44.686;10.842;2023-06-22T08:40:17;22.27;;;8.32;;
23290;SDS011;11814;44.686;10.842;2023-06-22T08:42:44;17.02;;;8.55;;
23290;SDS011;11814;44.686;10.842;2023-06-22T08:45:11;18.25;;;8.73;;
23290;SDS011;11814;44.686;10.842;2023-06-22T08:47:37;15.00;;;8.93;;
23290;SDS011;11814;44.686;10.842;2023-06-22T08:50:04;17.58;;;7.97;;
23290;SDS011;11814;44.686;10.842;2023-06-22T08:52:31;18.55;;;7.80;;
23290;SDS011;11814;44.686;10.842;2023-06-22T08:54:57;14.35;;;7.72;;
23290;SDS011;11814;44.686;10.842;2023-06-22T08:57:25;11.43;;;7.50;;
23290;SDS011;11814;44.686;10.842;2023-06-22T08:59:55;14.48;;;7.30;;
23290;SDS011;11814;44.686;10.842;2023-06-22T09:02:23;20.80;;;7.05;;
23290;SDS011;11814;44.686;10.842;2023-06-22T09:04:55;13.23;;;6.85;;
23290;SDS011;11814;44.686;10.842;2023-06-22T09:07:24;15.15;;;6.97;;
23290;SDS011;11814;44.686;10.842;2023-06-22T09:09:51;13.50;;;6.88;;
23290;SDS011;11814;44.686;10.842;2023-06-22T09:12:17;13.57;;;7.95;;
23290;SDS011;11814;44.686;10.842;2023-06-22T09:14:45;17.90;;;7.28;;
23290;SDS011;11814;44.686;10.842;2023-06-22T09:17:12;13.00;;;6.57;;
23290;SDS011;11814;44.686;10.842;2023-06-22T09:19:37;16.83;;;7.47;;
23290;SDS011;11814;44.686;10.842;2023-06-22T09:22:03;11.70;;;6.47;;
23290;SDS011;11814;44.686;10.842;2023-06-22T09:24:31;14.95;;;6.88;;
23290;SDS011;11814;44.686;10.842;2023-06-22T09:26:56;11.48;;;6.90;;
23290;SDS011;11814;44.686;10.842;2023-06-22T09:29:22;11.52;;;6.38;;
23290;SDS011;11814;44.686;10.842;2023-06-22T09:31:47;14.52;;;6.75;;
23290;SDS011;11814;44.686;10.842;2023-06-22T09:34:13;22.45;;;6.90;;
23290;SDS011;11814;44.686;10.842;2023-06-22T09:36:40;15.95;;;7.65;;
23290;SDS011;11814;44.686;10.842;2023-06-22T09:39:06;15.60;;;6.95;;
23290;SDS011;11814;44.686;10.842;2023-06-22T09:41:32;17.40;;;6.25;;
23290;SDS011;11814;44.686;10.842;2023-06-22T09:43:57;14.25;;;6.18;;
23290;SDS011;11814;44.686;10.842;2023-06-22T09:46:23;18.08;;;7.68;;
23290;SDS011;11814;44.686;10.842;2023-06-22T09:48:51;17.80;;;7.78;;
23290;SDS011;11814;44.686;10.842;2023-06-22T09:51:17;13.93;;;6.68;;
23290;SDS011;11814;44.686;10.842;2023-06-22T09:53:44;13.45;;;6.68;;
23290;SDS011;11814;44.686;10.842;2023-06-22T09:56:10;17.85;;;7.13;;
23290;SDS011;11814;44.686;10.842;2023-06-22T09:58:39;12.65;;;8.48;;
23290;SDS011;11814;44.686;10.842;2023-06-22T10:01:09;17.02;;;8.50;;
23290;SDS011;11814;44.686;10.842;2023-06-22T10:03:36;15.52;;;8.52;;
23290;SDS011;11814;44.686;10.842;2023-06-22T10:06:02;19.98;;;9.35;;
23290;SDS011;11814;44.686;10.842;2023-06-22T10:08:28;16.80;;;8.82;;
23290;SDS011;11814;44.686;10.842;2023-06-22T10:10:54;20.27;;;8.88;;
23290;SDS011;11814;44.686;10.842;2023-06-22T10:13:19;11.52;;;6.80;;
23290;SDS011;11814;44.686;10.842;2023-06-22T10:15:45;15.27;;;7.72;;
23290;SDS011;11814;44.686;10.842;2023-06-22T10:18:16;22.05;;;7.35;;
23290;SDS011;11814;44.686;10.842;2023-06-22T10:20:43;16.23;;;8.00;;
23290;SDS011;11814;44.686;10.842;2023-06-22T10:23:08;16.55;;;7.55;;
23290;SDS011;11814;44.686;10.842;2023-06-22T10:25:34;15.40;;;7.25;;
23290;SDS011;11814;44.686;10.842;2023-06-22T10:28:00;16.70;;;7.38;;
23290;SDS011;11814;44.686;10.842;2023-06-22T10:30:25;13.05;;;8.18;;
23290;SDS011;11814;44.686;10.842;2023-06-22T10:32:51;23.13;;;7.68;;
23290;SDS011;11814;44.686;10.842;2023-06-22T10:35:17;14.60;;;6.20;;
23290;SDS011;11814;44.686;10.842;2023-06-22T10:37:46;16.13;;;6.55;;
23290;SDS011;11814;44.686;10.842;2023-06-22T10:40:12;15.85;;;6.47;;
23290;SDS011;11814;44.686;10.842;2023-06-22T10:42:38;9.85;;;5.75;;
23290;SDS011;11814;44.686;10.842;2023-06-22T10:45:04;12.77;;;5.38;;
23290;SDS011;11814;44.686;10.842;2023-06-22T10:47:30;10.88;;;5.95;;
23290;SDS011;11814;44.686;10.842;2023-06-22T10:49:56;15.23;;;6.13;;
23290;SDS011;11814;44.686;10.842;2023-06-22T10:52:22;12.93;;;6.88;;
23290;SDS011;11814;44.686;10.842;2023-06-22T10:54:47;13.88;;;7.05;;
23290;SDS011;11814;44.686;10.842;2023-06-22T10:57:13;17.50;;;8.45;;
23290;SDS011;11814;44.686;10.842;2023-06-22T10:59:39;14.13;;;7.65;;
23290;SDS011;11814;44.686;10.842;2023-06-22T11:02:04;18.15;;;8.25;;
23290;SDS011;11814;44.686;10.842;2023-06-22T11:04:30;14.88;;;7.63;;
23290;SDS011;11814;44.686;10.842;2023-06-22T11:06:56;11.63;;;7.65;;
23290;SDS011;11814;44.686;10.842;2023-06-22T11:09:22;14.32;;;7.35;;
23290;SDS011;11814;44.686;10.842;2023-06-22T11:11:47;12.45;;;7.18;;
23290;SDS011;11814;44.686;10.842;2023-06-22T11:14:14;14.27;;;7.63;;
23290;SDS011;11814;44.686;10.842;2023-06-22T11:16:40;27.75;;;7.65;;
23290;SDS011;11814;44.686;10.842;2023-06-22T11:19:05;19.98;;;7.13;;
23290;SDS011;11814;44.686;10.842;2023-06-22T11:21:31;15.35;;;7.70;;
23290;SDS011;11814;44.686;10.842;2023-06-22T11:23:57;12.27;;;6.80;;
23290;SDS011;11814;44.686;10.842;2023-06-22T11:26:24;14.55;;;7.13;;
23290;SDS011;11814;44.686;10.842;2023-06-22T11:28:52;11.60;;;6.53;;
23290;SDS011;11814;44.686;10.842;2023-06-22T11:31:18;16.63;;;7.03;;
23290;SDS011;11814;44.686;10.842;2023-06-22T11:33:44;14.40;;;6.68;;
23290;SDS011;11814;44.686;10.842;2023-06-22T11:36:11;12.10;;;6.30;;
23290;SDS011;11814;44.686;10.842;2023-06-22T11:38:37;20.83;;;7.32;;
23290;SDS011;11814;44.686;10.842;2023-06-22T11:41:05;14.45;;;6.80;;
23290;SDS011;11814;44.686;10.842;2023-06-22T11:43:31;13.60;;;6.43;;
23290;SDS011;11814;44.686;10.842;2023-06-22T11:45:56;14.80;;;7.05;;
23290;SDS011;11814;44.686;10.842;2023-06-22T11:48:24;16.90;;;6.43;;
23290;SDS011;11814;44.686;10.842;2023-06-22T11:50:50;18.20;;;6.72;;
23290;SDS011;11814;44.686;10.842;2023-06-22T11:53:16;14.77;;;6.38;;
23290;SDS011;11814;44.686;10.842;2023-06-22T11:55:42;17.20;;;6.55;;
23290;SDS011;11814;44.686;10.842;2023-06-22T11:58:08;10.05;;;6.20;;
23290;SDS011;11814;44.686;10.842;2023-06-22T12:00:34;14.38;;;6.20;;
23290;SDS011;11814;44.686;10.842;2023-06-22T12:03:00;14.27;;;6.30;;
23290;SDS011;11814;44.686;10.842;2023-06-22T12:05:26;17.70;;;7.28;;
23290;SDS011;11814;44.686;10.842;2023-06-22T12:07:54;17.90;;;8.07;;
23290;SDS011;11814;44.686;10.842;2023-06-22T12:10:24;12.07;;;7.53;;
23290;SDS011;11814;44.686;10.842;2023-06-22T12:12:51;22.33;;;7.60;;
23290;SDS011;11814;44.686;10.842;2023-06-22T12:15:16;19.38;;;7.32;;
23290;SDS011;11814;44.686;10.842;2023-06-22T12:17:42;16.33;;;7.70;;
23290;SDS011;11814;44.686;10.842;2023-06-22T12:20:08;12.35;;;8.05;;
23290;SDS011;11814;44.686;10.842;2023-06-22T12:22:35;12.98;;;7.10;;
23290;SDS011;11814;44.686;10.842;2023-06-22T12:25:02;17.08;;;8.50;;
23290;SDS011;11814;44.686;10.842;2023-06-22T12:27:28;14.73;;;8.10;;
23290;SDS011;11814;44.686;10.842;2023-06-22T12:29:55;16.00;;;8.05;;
23290;SDS011;11814;44.686;10.842;2023-06-22T12:32:21;15.90;;;7.93;;
23290;SDS011;11814;44.686;10.842;2023-06-22T12:34:47;14.77;;;7.45;;
23290;SDS011;11814;44.686;10.842;2023-06-22T12:37:12;15.07;;;7.60;;
23290;SDS011;11814;44.686;10.842;2023-06-22T12:39:40;12.75;;;7.40;;
23290;SDS011;11814;44.686;10.842;2023-06-22T12:42:06;19.30;;;7.63;;
23290;SDS011;11814;44.686;10.842;2023-06-22T12:44:34;13.30;;;7.43;;
23290;SDS011;11814;44.686;10.842;2023-06-22T12:47:00;13.70;;;6.68;;
23290;SDS011;11814;44.686;10.842;2023-06-22T12:49:25;17.70;;;7.28;;
23290;SDS011;11814;44.686;10.842;2023-06-22T12:51:51;13.07;;;6.90;;
23290;SDS011;11814;44.686;10.842;2023-06-22T12:54:17;13.85;;;6.72;;
23290;SDS011;11814;44.686;10.842;2023-06-22T12:56:43;13.23;;;6.63;;
23290;SDS011;11814;44.686;10.842;2023-06-22T12:59:10;22.55;;;6.90;;
23290;SDS011;11814;44.686;10.842;2023-06-22T13:01:36;16.52;;;6.60;;
23290;SDS011;11814;44.686;10.842;2023-06-22T13:04:02;16.02;;;6.55;;
23290;SDS011;11814;44.686;10.842;2023-06-22T13:06:28;16.42;;;6.88;;
23290;SDS011;11814;44.686;10.842;2023-06-22T13:08:54;9.98;;;6.85;;
23290;SDS011;11814;44.686;10.842;2023-06-22T13:11:19;14.00;;;6.85;;
23290;SDS011;11814;44.686;10.842;2023-06-22T13:13:45;14.93;;;5.95;;
23290;SDS011;11814;44.686;10.842;2023-06-22T13:16:11;13.07;;;6.18;;
23290;SDS011;11814;44.686;10.842;2023-06-22T13:18:37;14.27;;;6.03;;
23290;SDS011;11814;44.686;10.842;2023-06-22T13:21:03;13.68;;;6.07;;
23290;SDS011;11814;44.686;10.842;2023-06-22T13:23:29;14.23;;;5.95;;
23290;SDS011;11814;44.686;10.842;2023-06-22T13:25:55;18.75;;;6.53;;
23290;SDS011;11814;44.686;10.842;2023-06-22T13:28:22;11.60;;;6.28;;
23290;SDS011;11814;44.686;10.842;2023-06-22T13:30:48;14.38;;;6.50;;
23290;SDS011;11814;44.686;10.842;2023-06-22T13:33:13;15.95;;;6.97;;
23290;SDS011;11814;44.686;10.842;2023-06-22T13:35:39;14.15;;;6.40;;
23290;SDS011;11814;44.686;10.842;2023-06-22T13:38:07;15.40;;;6.70;;
23290;SDS011;11814;44.686;10.842;2023-06-22T13:40:34;20.23;;;6.65;;
23290;SDS011;11814;44.686;10.842;2023-06-22T13:43:00;17.08;;;6.30;;
23290;SDS011;11814;44.686;10.842;2023-06-22T13:45:25;14.90;;;6.65;;
23290;SDS011;11814;44.686;10.842;2023-06-22T13:47:51;15.00;;;6.43;;
23290;SDS011;11814;44.686;10.842;2023-06-22T13:50:17;16.92;;;6.70;;
23290;SDS011;11814;44.686;10.842;2023-06-22T13:52:43;16.75;;;6.38;;
23290;SDS011;11814;44.686;10.842;2023-06-22T13:55:08;13.25;;;6.22;;
23290;SDS011;11814;44.686;10.842;2023-06-22T13:57:35;11.55;;;6.25;;
23290;SDS011;11814;44.686;10.842;2023-06-22T14:00:01;14.57;;;6.15;;
23290;SDS011;11814;44.686;10.842;2023-06-22T14:02:29;12.90;;;6.28;;
23290;SDS011;11814;44.686;10.842;2023-06-22T14:04:54;15.35;;;6.25;;
23290;SDS011;11814;44.686;10.842;2023-06-22T14:07:20;15.20;;;6.65;;
23290;SDS011;11814;44.686;10.842;2023-06-22T14:09:46;12.60;;;6.10;;
23290;SDS011;11814;44.686;10.842;2023-06-22T14:12:11;16.73;;;5.90;;
23290;SDS011;11814;44.686;10.842;2023-06-22T14:14:37;12.55;;;6.28;;
23290;SDS011;11814;44.686;10.842;2023-06-22T14:17:03;20.67;;;6.50;;
23290;SDS011;11814;44.686;10.842;2023-06-22T14:19:29;15.98;;;6.13;;